Latest Coastal Weather Observations for Frederick Reef

IDQ60701

Issued at 10:02 pm EST Sunday 26 May 2024 (issued every 10 minutes, with the page automatically refreshed every 10 minutes)

About coastal observations | Map of coastal stations | Coastal observations for QLD | Marine services | Other Formats
Station Details ID: 200701 Name: FREDERICK REEF Lat: -20.94 Lon: 154.40 Height: 4.9 m
Data from the previous 72 hours. | See also: Recent months at Frederick Reef
Date/Time
EST
Wind Sea
Height
m
Swell Vis
km
Cloud Weather Temp
°C
Press
MSL
hPa
Rain since
9am
mm
Dir  Spd
kts
Gust
kts
Height
m
Period
s
Dir
26/10:00pm SE 21 23 - - - - - - - 23.5 1020.5 -
26/09:30pm SE 22 25 - - - - - - - 23.7 1020.2 -
26/09:00pm SE 22 25 - - - - - - - 23.7 1020.0 -
26/08:30pm ESE 22 25 - - - - - - - 23.5 1020.0 -
26/08:00pm SE 23 26 - - - - - - - 23.6 1020.0 -
26/07:30pm SE 23 25 - - - - - - - 23.4 1020.0 -
26/07:00pm SE 23 27 - - - - - - - 23.4 1019.7 -
26/06:30pm SE 22 25 - - - - - - - 23.6 1019.2 -
26/06:00pm SE 21 24 - - - - - - - 23.6 1018.9 -
26/05:30pm SE 21 25 - - - - - - - 23.6 1018.8 -
26/05:00pm SE 21 24 - - - - - - - 23.5 1018.7 -
26/04:30pm SE 21 24 - - - - - - - 23.7 1018.2 -
26/04:00pm SE 20 23 - - - - - - - 23.6 1017.9 -
26/03:30pm SE 19 22 - - - - - - - 23.6 1017.8 -
26/03:00pm SE 19 24 - - - - - - - 23.6 1017.5 -
26/02:30pm SSE 19 21 - - - - - - - 23.7 1017.8 -
26/02:00pm SSE 18 21 - - - - - - - 23.5 1017.8 -
26/01:30pm SSE 19 23 - - - - - - - 23.1 1017.9 -
26/01:00pm SE 17 19 - - - - - - - 23.8 1018.1 -
26/12:30pm SE 15 19 - - - - - - - 23.6 1018.3 -
26/12:00pm SE 15 18 - - - - - - - 23.7 1018.7 -
26/11:30am SE 16 18 - - - - - - - 23.8 1019.2 -
26/11:00am SE 16 19 - - - - - - - 23.8 1019.5 -
26/10:30am SE 16 18 - - - - - - - 23.9 1019.7 -
26/10:00am SE 16 18 - - - - - - - 23.7 1020.0 -
26/09:30am SE 15 18 - - - - - - - 23.8 1020.2 -
26/09:00am ESE 14 17 - - - - - - - 23.8 1020.1 -
26/08:30am SE 15 17 - - - - - - - 23.8 1019.8 -
26/08:00am ESE 15 17 - - - - - - - 23.8 1019.7 -
26/07:30am SE 15 17 - - - - - - - 23.6 1019.5 -
26/07:00am ESE 14 16 - - - - - - - 23.7 1019.4 -
26/06:30am ESE 16 19 - - - - - - - 23.6 1019.1 -
26/06:00am SE 17 19 - - - - - - - 23.6 1018.8 -
26/05:30am ESE 16 19 - - - - - - - 23.6 1018.7 -
26/05:00am ESE 17 20 - - - - - - - 23.6 1018.4 -
26/04:30am ESE 17 20 - - - - - - - 23.6 1018.3 -
26/04:00am ESE 17 21 - - - - - - - 23.6 1018.3 -
26/03:30am ESE 17 19 - - - - - - - 23.5 1018.3 -
26/03:00am ESE 18 21 - - - - - - - 23.6 1018.4 -
26/02:30am ESE 18 21 - - - - - - - 23.6 1018.7 -
26/02:00am ESE 19 21 - - - - - - - 23.4 1018.7 -
26/01:30am ESE 19 22 - - - - - - - 23.7 1019.0 -
26/01:00am ESE 20 23 - - - - - - - 23.6 1019.3 -
26/12:30am ESE 20 23 - - - - - - - 23.8 1019.5 -
26/12:00am ESE 18 22 - - - - - - - 24.0 1019.7 -
 
Date/Time
EST
Wind Sea
Height
m
Swell Vis
km
Cloud Weather Temp
°C
Press
MSL
hPa
Rain since
9am
mm
Dir  Spd
kts
Gust
kts
Height
m
Period
s
Dir
25/11:30pm ESE 21 24 - - - - - - - 23.7 1020.0 -
25/11:00pm ESE 17 25 - - - - - - - 23.6 1020.1 -
25/10:57pm ESE 20 25 - - - - - - - 23.3 - -
25/10:30pm E 18 22 - - - - - - - 21.7 1020.3 -
25/10:25pm SE 19 24 - - - - - - - 22.5 1020.4 -
25/10:00pm SE 23 26 - - - - - - - 22.2 1020.3 -
25/09:30pm SE 20 24 - - - - - - - 23.2 1020.4 -
25/09:00pm ESE 14 22 - - - - - - - 22.5 1020.4 -
25/08:36pm E 14 24 - - - - - - - 21.2 - -
25/08:35pm SE 20 24 - - - - - - - 21.5 1020.5 -
25/08:30pm SE 22 27 - - - - - - - 21.3 1020.3 -
25/08:00pm SSE 21 23 - - - - - - - 22.4 1020.1 -
25/07:58pm SSE 20 23 - - - - - - - 22.6 - -
25/07:30pm ESE 18 20 - - - - - - - 23.4 1019.6 -
25/07:00pm SE 20 24 - - - - - - - 23.2 1019.2 -
25/06:30pm ESE 19 21 - - - - - - - 23.5 1019.3 -
25/06:00pm SE 20 23 - - - - - - - 23.0 1018.8 -
25/05:30pm ESE 20 22 - - - - - - - 23.3 1018.5 -
25/05:00pm SE 22 28 - - - - - - - 22.6 1018.4 -
25/04:30pm SE 17 20 - - - - - - - 23.2 1018.2 -
25/04:00pm SE 14 17 - - - - - - - 22.5 1018.2 -
25/03:30pm ESE 16 21 - - - - - - - 20.5 1018.4 -
25/03:07pm ESE 20 25 - - - - - - - 21.6 1018.0 -
25/03:06pm E 22 25 - - - - - - - 22.1 - -
25/03:00pm SE 21 25 - - - - - - - 22.5 1018.0 -
25/02:30pm ESE 18 22 - - - - - - - 23.1 1018.0 -
25/02:00pm SE 20 26 - - - - - - - 23.0 1018.0 -
25/01:30pm SE 18 21 - - - - - - - 22.9 1018.4 -
25/01:00pm SE 20 22 - - - - - - - 22.6 1018.7 -
25/12:30pm SE 19 23 - - - - - - - 23.0 1019.0 -
25/12:00pm ESE 20 23 - - - - - - - 23.6 1019.1 -
25/11:30am ESE 18 19 - - - - - - - 23.7 1019.4 -
25/11:00am ESE 21 23 - - - - - - - 23.2 1019.7 -
25/10:30am ESE 21 23 - - - - - - - 23.5 1019.8 -
25/10:00am ESE 21 24 - - - - - - - 23.3 1020.0 -
25/09:30am ESE 21 23 - - - - - - - 23.6 1020.3 -
25/09:00am SE 19 22 - - - - - - - 23.8 1020.3 -
25/08:30am ESE 19 23 - - - - - - - 23.4 1020.0 -
25/08:00am ESE 18 20 - - - - - - - 24.0 1019.8 -
25/07:30am ESE 19 22 - - - - - - - 24.0 1019.8 -
25/07:00am ESE 17 20 - - - - - - - 23.8 1019.5 -
25/06:30am SE 18 21 - - - - - - - 23.6 1019.2 -
25/06:00am ESE 20 23 - - - - - - - 23.6 1019.0 -
25/05:30am ESE 21 25 - - - - - - - 23.5 1019.0 -
25/05:00am ESE 20 23 - - - - - - - 23.4 1018.8 -
25/04:30am SE 21 23 - - - - - - - 23.3 1019.0 -
25/04:00am ESE 22 25 - - - - - - - 23.2 1018.8 -
25/03:30am ESE 21 25 - - - - - - - 22.5 1018.9 -
25/03:00am SE 22 25 - - - - - - - 23.0 1018.9 -
25/02:30am SE 21 24 - - - - - - - 23.1 1018.9 -
25/02:00am SE 17 20 - - - - - - - 23.1 1019.2 -
25/01:30am SSE 17 21 - - - - - - - 21.6 1019.6 -
25/01:18am SE 17 23 - - - - - - - 21.9 1019.4 -
25/01:00am SE 12 16 - - - - - - - 21.7 1019.4 -
25/12:30am SE 25 29 - - - - - - - 20.3 1019.7 -
25/12:15am SE 31 32 - - - - - - - 20.8 - -
25/12:12am SE 22 31 - - - - - - - 21.6 1019.7 -
25/12:07am SE 20 24 - - - - - - - 22.2 - -
25/12:00am ESE 19 21 - - - - - - - 22.6 1019.9 -
 
Date/Time
EST
Wind Sea
Height
m
Swell Vis
km
Cloud Weather Temp
°C
Press
MSL
hPa
Rain since
9am
mm
Dir  Spd
kts
Gust
kts
Height
m
Period
s
Dir
24/11:30pm ESE 20 22 - - - - - - - 22.6 1019.9 -
24/11:00pm ESE 23 27 - - - - - - - 22.6 1020.0 -
24/10:30pm ESE 18 22 - - - - - - - 23.2 1020.1 -
24/10:00pm ESE 19 23 - - - - - - - 23.1 1020.4 -
24/09:57pm ESE 20 23 - - - - - - - 23.1 1020.5 -
24/09:49pm ESE 20 23 - - - - - - - 23.0 - -
24/09:36pm SSE 19 23 - - - - - - - 22.3 - -
24/09:32pm ESE 20 24 - - - - - - - 22.5 1020.5 -
24/09:30pm ESE 21 24 - - - - - - - 23.5 1020.5 -
24/09:00pm SE 20 25 - - - - - - - 23.1 1020.5 -
24/08:58pm SE 19 25 - - - - - - - 22.9 1020.5 -
24/08:30pm SSE 17 20 - - - - - - - 22.4 1020.7 -
24/08:00pm SE 24 28 - - - - - - - 22.2 1020.3 -
24/07:52pm SE 26 30 - - - - - - - 22.1 1020.0 -
24/07:40pm SSE 25 28 - - - - - - - 22.4 - -
24/07:35pm SE 24 31 - - - - - - - 22.5 1019.8 -
24/07:30pm SE 22 31 - - - - - - - 22.7 1020.0 -
24/07:28pm ESE 21 31 - - - - - - - 23.5 1019.8 -
24/07:00pm E 23 29 - - - - - - - 22.8 1019.7 -
24/06:53pm ESE 25 29 - - - - - - - 22.5 1019.3 -
24/06:51pm E 26 29 - - - - - - - 22.9 - -
24/06:30pm ESE 11 23 - - - - - - - 23.5 1019.2 -
24/06:27pm ESE 5 23 - - - - - - - 23.8 1019.2 -
24/06:00pm E 1 3 - - - - - - - 23.7 1019.0 -
24/05:30pm ESE 19 23 - - - - - - - 23.7 1018.8 -
24/05:00pm ESE 23 25 - - - - - - - 23.6 1018.2 -
24/04:30pm ESE 21 24 - - - - - - - 23.8 1018.1 -
24/04:00pm ESE 22 25 - - - - - - - 23.7 1017.8 -
24/03:30pm ESE 22 26 - - - - - - - 23.8 1017.6 -
24/03:00pm ESE 21 25 - - - - - - - 23.5 1017.6 -
24/02:30pm SE 19 21 - - - - - - - 23.4 1017.8 -
24/02:00pm SE 19 23 - - - - - - - 23.6 1017.8 -
24/01:37pm ESE 21 31 - - - - - - - 23.5 1017.8 -
24/01:30pm ESE 20 25 - - - - - - - 23.8 1018.0 -
24/01:00pm SE 22 25 - - - - - - - 23.5 1018.1 -
24/12:30pm ESE 22 25 - - - - - - - 23.6 1018.5 -
24/12:00pm ESE 22 25 - - - - - - - 23.7 1018.8 -
24/11:30am ESE 22 26 - - - - - - - 23.9 1019.3 -
24/11:00am SE 22 25 - - - - - - - 24.0 1019.6 -
24/10:30am ESE 23 26 - - - - - - - 24.0 1020.0 -
24/10:00am ESE 23 26 - - - - - - - 24.1 1020.3 -
24/09:30am SE 22 26 - - - - - - - - 1020.4 -
24/09:14am SE 24 27 - - - - - - - -34.5 1020.4 -
24/09:00am ESE 23 27 - - - - - - - 23.8 1020.3 -
24/08:30am ESE 24 28 - - - - - - - 23.5 1020.2 -
24/08:22am E 22 26 - - - - - - - 23.2 - -
24/08:00am SE 23 27 - - - - - - - 23.8 1020.0 -
24/07:30am SE 23 26 - - - - - - - 23.7 1020.0 -
24/07:00am ESE 22 26 - - - - - - - 23.4 1019.8 -
24/06:30am ESE 25 35 - - - - - - - 22.8 1019.0 -
24/06:29am ESE 24 35 - - - - - - - 23.1 1019.1 -
24/06:00am ESE 24 28 - - - - - - - 23.5 1019.0 -
24/05:30am SE 21 27 - - - - - - - 22.9 1018.7 -
24/05:00am SE 24 27 - - - - - - - 23.2 1018.4 -
24/04:30am SE 27 30 - - - - - - - 22.9 1018.2 -
24/04:00am SE 25 28 - - - - - - - 23.6 1018.3 -
24/03:30am ESE 25 27 - - - - - - - 23.5 1018.2 -
24/03:00am ESE 24 27 - - - - - - - 23.2 1018.6 -
24/02:30am ESE 24 27 - - - - - - - 23.6 1018.5 -
24/02:00am ESE 25 28 - - - - - - - 23.7 1018.6 -
24/01:30am ESE 24 29 - - - - - - - 23.6 1019.0 -
24/01:00am ESE 25 28 - - - - - - - 23.6 1019.5 -
24/12:30am ESE 23 27 - - - - - - - 23.7 1019.7 -
24/12:00am ESE 26 30 - - - - - - - 23.7 1019.7 -
 
Date/Time
EST
Wind Sea
Height
m
Swell Vis
km
Cloud Weather Temp
°C
Press
MSL
hPa
Rain since
9am
mm
Dir  Spd
kts
Gust
kts
Height
m
Period
s
Dir
23/11:30pm SE 23 27 - - - - - - - 23.7 1019.9 -
23/11:00pm SE 24 28 - - - - - - - 23.6 1020.1 -
23/10:30pm SE 25 29 - - - - - - - 23.8 1020.3 -

Other formats

Comma delimited format used in spreadsheet applications
http://www.bom.gov.au/fwo/IDQ60701/IDQ60701.94393.axf

JavaScript Object Notation format (JSON) in row-major order
http://www.bom.gov.au/fwo/IDQ60701/IDQ60701.94393.json

Data quality

Most of these data are generated automatically and are frequently updated. Quality checks on data are not normally performed. It is possible for incorrect values to appear. Refer to information at About Latest Weather Observations and please check the disclaimer before using these data.